Time;durP1;ratioP1;P1;durP2;ratioP2;P2;SDS_P1;SDS_P2;PMS_P1;PMS_P2;Temp;Humidity;BMP_temperature;BMP_pressure;BME280_temperature;BME280_humidity;BME280_pressure;Samples;Min_cycle;Max_cycle;Signal;HPM_P1;HPM_P2
2021/12/08 00:03:12;;;;;;;5.70;4.68;;;;;;;20.11;45.12;95950.16;10466266;28;20068;-54
2021/12/08 00:08:33;;;;;;;7.82;4.55;;;;;;;20.10;44.87;95951.28;10470106;28;20053;-54
2021/12/08 00:13:53;;;;;;;4.85;4.35;;;;;;;20.07;44.88;95936.56;10473982;28;20044;-54
2021/12/08 00:19:12;;;;;;;6.28;4.30;;;;;;;20.05;44.67;95925.31;10472380;28;20060;-55
2021/12/08 00:24:32;;;;;;;4.75;4.35;;;;;;;20.03;44.75;95913.25;10461663;28;20057;-54
2021/12/08 00:29:51;;;;;;;5.03;4.43;;;;;;;20.04;44.78;95914.84;10491433;28;20506;-55
2021/12/08 00:35:11;;;;;;;5.15;4.65;;;;;;;20.01;44.62;95902.00;10480393;28;20048;-53
2021/12/08 00:40:31;;;;;;;4.97;4.18;;;;;;;19.99;44.43;95905.06;10469475;28;20060;-55
2021/12/08 00:45:51;;;;;;;5.68;4.43;;;;;;;19.98;44.20;95910.81;10465654;28;20044;-54
2021/12/08 00:51:11;;;;;;;5.07;4.38;;;;;;;19.95;44.31;95902.28;10471285;28;20049;-54
2021/12/08 00:56:31;;;;;;;5.40;4.20;;;;;;;19.91;44.29;95887.88;10466037;28;20053;-55
2021/12/08 01:01:50;;;;;;;5.68;4.13;;;;;;;19.90;44.44;95894.41;10480737;28;20098;-54
2021/12/08 01:07:10;;;;;;;4.63;4.13;;;;;;;19.89;44.25;95903.66;10477794;28;20041;-55
2021/12/08 01:12:30;;;;;;;5.22;4.47;;;;;;;19.87;44.31;95905.13;10481982;28;20040;-55
2021/12/08 01:17:49;;;;;;;4.68;4.10;;;;;;;19.85;44.17;95891.97;10463040;28;20049;-54
2021/12/08 01:23:08;;;;;;;4.63;4.10;;;;;;;19.83;44.29;95882.66;10457765;28;20135;-54
2021/12/08 01:28:28;;;;;;;4.35;3.47;;;;;;;19.80;44.14;95856.31;10458775;28;20052;-54
2021/12/08 01:33:48;;;;;;;3.88;3.58;;;;;;;19.79;44.12;95863.63;10476527;28;20892;-55
2021/12/08 01:39:08;;;;;;;4.47;3.95;;;;;;;19.78;44.07;95856.66;10479462;28;20048;-54
2021/12/08 01:50:07;;;;;;;4.30;3.90;;;;;;;19.76;44.07;95848.13;10477061;28;20048;-55
2021/12/08 01:55:27;;;;;;;4.57;3.90;;;;;;;19.72;44.09;95825.63;10462348;28;20294;-54
2021/12/08 02:00:54;;;;;;;4.03;3.65;;;;;;;19.71;43.93;95805.13;10468578;28;20099;-55
2021/12/08 02:06:15;;;;;;;4.97;3.85;;;;;;;19.68;43.92;95798.50;10473157;28;20103;-54
2021/12/08 02:11:39;;;;;;;4.22;3.80;;;;;;;19.67;43.96;95802.31;10479488;28;20361;-54
2021/12/08 02:16:58;;;;;;;4.22;3.67;;;;;;;19.65;44.06;95791.06;10457115;28;20106;-54
2021/12/08 02:22:18;;;;;;;4.00;3.60;;;;;;;19.63;44.16;95785.25;10470637;28;20055;-54
2021/12/08 02:27:38;;;;;;;4.47;3.95;;;;;;;19.61;44.17;95784.81;10470672;28;20044;-55
2021/12/08 02:49:55;;;;;;;4.30;3.30;;;;;;;19.54;44.03;95758.41;10455608;28;20083;-53
2021/12/08 02:55:15;;;;;;;3.92;3.35;;;;;;;19.52;43.97;95760.69;10470864;28;20061;-55
2021/12/08 03:00:39;;;;;;;3.78;3.35;;;;;;;19.50;44.14;95741.34;10476121;28;20063;-55
2021/12/08 03:05:59;;;;;;;3.42;3.13;;;;;;;19.48;44.08;95749.00;10472078;28;20060;-54
2021/12/08 03:11:19;;;;;;;3.70;3.40;;;;;;;19.47;43.97;95736.63;10470281;28;20074;-54
2021/12/08 03:16:41;;;;;;;3.17;2.88;;;;;;;19.46;44.11;95745.84;10454431;28;20057;-55
2021/12/08 03:22:10;;;;;;;4.53;3.00;;;;;;;19.44;44.01;95748.09;10462098;28;20060;-54
2021/12/08 03:27:36;;;;;;;4.22;3.20;;;;;;;19.43;44.03;95729.56;10492004;28;20095;-54
2021/12/08 03:32:58;;;;;;;3.30;3.00;;;;;;;19.40;43.94;95725.63;10496221;28;20064;-55
2021/12/08 03:38:19;;;;;;;4.25;3.47;;;;;;;19.39;44.07;95724.09;10468965;28;20425;-55
2021/12/08 03:43:39;;;;;;;3.60;3.30;;;;;;;19.38;44.15;95722.50;10472405;28;20678;-55
2021/12/08 03:48:59;;;;;;;3.08;2.78;;;;;;;19.35;44.09;95709.72;10466404;28;20079;-55
2021/12/08 03:54:19;;;;;;;3.78;2.70;;;;;;;19.34;44.06;95702.72;10475765;28;20051;-55
2021/12/08 03:59:38;;;;;;;3.28;2.97;;;;;;;19.32;43.90;95699.59;10470503;28;20094;-55
2021/12/08 04:04:57;;;;;;;3.25;2.95;;;;;;;19.30;43.90;95699.16;10480781;28;20488;-55
2021/12/08 04:10:20;;;;;;;3.17;2.88;;;;;;;19.29;44.09;95697.59;10476011;28;20106;-55
2021/12/08 04:15:39;;;;;;;3.13;2.78;;;;;;;;;;10483993;28;20047;-54
2021/12/08 04:21:00;;;;;;;3.20;2.90;;;;;;;-146.19;100.00;65364.44;10470149;28;20388;-54
2021/12/08 04:26:34;;;;;;;2.78;2.55;;;;;;;19.26;43.84;95682.88;10460760;28;20431;-54
2021/12/08 04:31:55;;;;;;;2.90;2.60;;;;;;;19.26;43.97;95682.09;10470477;28;20662;-55
2021/12/08 04:37:22;;;;;;;3.70;3.10;;;;;;;19.26;43.85;95688.25;10463315;28;20658;-55
2021/12/08 04:43:02;;;;;;;3.07;2.77;;;;;;;-146.19;100.00;65364.44;10479499;28;20377;-54
2021/12/08 04:48:41;;;;;;;2.80;2.50;;;;;;;-146.19;100.00;65364.44;10473483;28;20056;-55
2021/12/08 05:10:32;;;;;;;2.83;2.60;;;;;;;19.38;43.66;95676.59;10466191;28;20049;-55
2021/12/08 05:15:55;;;;;;;2.80;2.60;;;;;;;19.41;43.64;95667.78;10464764;28;20072;-54
2021/12/08 05:21:20;;;;;;;2.80;2.40;;;;;;;19.45;43.67;95684.09;10464373;28;20077;-54
2021/12/08 05:26:47;;;;;;;3.00;2.80;;;;;;;19.47;43.96;95677.19;10482179;28;20059;-55
2021/12/08 05:32:08;;;;;;;2.50;2.30;;;;;;;19.51;43.94;95683.47;10477041;28;20090;-54
2021/12/08 05:37:29;;;;;;;2.70;2.50;;;;;;;19.55;43.87;95683.56;10483533;28;20048;-55
2021/12/08 05:42:49;;;;;;;2.53;2.33;;;;;;;-146.19;100.00;65364.44;10471250;28;20090;-55
2021/12/08 05:48:09;;;;;;;2.70;2.50;;;;;;;-146.19;100.00;65364.44;10465844;28;20747;-55
2021/12/08 05:53:29;;;;;;;2.60;2.40;;;;;;;-146.19;100.00;65364.44;10470101;28;20049;-54
2021/12/08 05:58:50;;;;;;;2.47;2.22;;;;;;;-146.19;100.00;65364.44;10461997;28;20052;-55
2021/12/08 06:04:11;;;;;;;3.10;2.35;;;;;;;-146.19;100.00;65364.44;10454016;28;20057;-55
2021/12/08 06:09:32;;;;;;;2.50;2.30;;;;;;;-146.19;100.00;65364.44;10466701;28;20064;-55
2021/12/08 06:14:55;;;;;;;3.03;2.72;;;;;;;-146.19;100.00;65364.44;10471903;28;20055;-55
2021/12/08 06:20:15;;;;;;;2.45;2.25;;;;;;;19.55;43.87;95683.56;10465195;28;20404;-55
2021/12/08 06:25:36;;;;;;;2.95;2.67;;;;;;;19.85;43.50;95697.38;10467006;28;20056;-54
2021/12/08 06:30:56;;;;;;;3.33;2.60;;;;;;;19.88;43.46;95702.09;10463793;28;20049;-55
2021/12/08 06:36:21;;;;;;;3.00;2.63;;;;;;;-146.19;100.00;65364.44;10478510;28;20613;-55
2021/12/08 06:41:44;;;;;;;2.50;2.30;;;;;;;-146.19;100.00;65364.44;10469528;28;20041;-55
2021/12/08 06:47:05;;;;;;;3.00;2.70;;;;;;;-146.19;100.00;65364.44;10478657;28;20395;-55
2021/12/08 06:52:29;;;;;;;2.40;2.20;;;;;;;-146.19;100.00;65364.44;10477967;28;20436;-55
2021/12/08 06:58:09;;;;;;;2.70;2.50;;;;;;;-146.19;100.00;65364.44;10486694;28;20056;-54
2021/12/08 07:04:03;;;;;;;2.72;2.38;;;;;;;-146.19;100.00;65364.44;10477237;28;20056;-55
2021/12/08 07:09:27;;;;;;;2.63;2.40;;;;;;;-146.19;100.00;65364.44;10482033;28;20360;-55
2021/12/08 07:14:50;;;;;;;2.75;2.25;;;;;;;-146.19;100.00;65364.44;10470012;28;20053;-55
2021/12/08 07:26:15;;;;;;;2.38;2.17;;;;;;;-146.19;100.00;65364.44;10443877;28;20060;-54
2021/12/08 07:31:39;;;;;;;2.80;2.40;;;;;;;-146.19;100.00;65364.44;10483033;28;20043;-55
2021/12/08 07:37:02;;;;;;;2.65;2.40;;;;;;;-146.19;100.00;65364.44;10470008;28;20057;-55
2021/12/08 07:42:48;;;;;;;2.63;2.38;;;;;;;-146.19;100.00;65364.44;10470900;28;20474;-55
2021/12/08 07:48:11;;;;;;;3.00;2.35;;;;;;;-146.19;100.00;65364.44;10471814;28;20041;-55
2021/12/08 07:53:31;;;;;;;4.00;2.75;;;;;;;-146.19;100.00;65364.44;10470646;28;20049;-55
2021/12/08 07:58:54;;;;;;;4.10;2.90;;;;;;;-146.19;100.00;65364.44;10471507;28;20053;-56
2021/12/08 08:04:17;;;;;;;2.85;2.58;;;;;;;-146.19;100.00;65364.44;10469458;28;20064;-55
2021/12/08 08:09:42;;;;;;;3.22;2.92;;;;;;;-146.19;100.00;65364.44;10484349;28;20460;-55
2021/12/08 08:15:07;;;;;;;2.60;2.40;;;;;;;-146.19;100.00;65364.44;10469206;28;20044;-55
2021/12/08 08:20:31;;;;;;;2.70;2.40;;;;;;;-146.19;100.00;65364.44;10483430;28;20037;-55
2021/12/08 08:25:52;;;;;;;2.53;2.30;;;;;;;-146.19;100.00;65364.44;10470760;28;20052;-55
2021/12/08 08:31:17;;;;;;;2.88;2.65;;;;;;;-146.19;100.00;65364.44;10468209;28;20048;-56
2021/12/08 08:36:41;;;;;;;2.75;2.50;;;;;;;-146.19;100.00;65364.44;10470452;28;20053;-55
2021/12/08 08:42:08;;;;;;;2.45;2.25;;;;;;;-146.19;100.00;65364.44;10481452;28;20037;-56
2021/12/08 08:47:32;;;;;;;2.50;2.30;;;;;;;-146.19;100.00;65364.44;10470216;28;20045;-56
2021/12/08 08:52:54;;;;;;;3.22;2.40;;;;;;;-146.19;100.00;65364.44;10470436;28;20093;-55
2021/12/08 08:58:15;;;;;;;2.47;2.25;;;;;;;19.91;43.18;95646.53;10477270;28;20045;-55
2021/12/08 09:03:36;;;;;;;3.75;2.30;;;;;;;19.90;43.05;95636.88;10474779;28;20056;-55
2021/12/08 09:08:56;;;;;;;3.97;2.10;;;;;;;19.89;42.98;95646.88;10459734;28;20053;-55
2021/12/08 09:14:23;;;;;;;2.60;2.22;;;;;;;19.87;43.73;95651.84;10448242;28;20048;-55
2021/12/08 09:19:58;;;;;;;3.25;2.40;;;;;;;-146.19;100.00;65364.44;10460408;28;20048;-55
2021/12/08 09:25:25;;;;;;;4.35;2.70;;;;;;;19.86;44.26;95646.81;10448216;28;20057;-55
2021/12/08 09:30:56;;;;;;;2.47;2.10;;;;;;;19.85;44.41;95640.63;10454541;28;20127;-56
2021/12/08 09:36:20;;;;;;;3.10;2.30;;;;;;;19.83;44.37;95631.31;10456806;28;20500;-56
2021/12/08 09:41:46;;;;;;;3.72;2.47;;;;;;;19.82;44.33;95627.81;10486279;28;20051;-55
2021/12/08 09:47:06;;;;;;;3.08;2.15;;;;;;;19.81;44.32;95620.84;10453764;28;20111;-55
2021/12/08 09:52:30;;;;;;;2.47;2.20;;;;;;;19.81;44.31;95614.66;10448284;28;20052;-56
2021/12/08 09:57:50;;;;;;;4.32;2.50;;;;;;;19.79;44.38;95609.59;10468823;28;20052;-56
2021/12/08 10:03:12;;;;;;;4.38;2.80;;;;;;;19.80;44.48;95610.38;10483817;28;20579;-57
2021/12/08 10:08:32;;;;;;;3.10;2.67;;;;;;;19.78;44.19;95593.75;10499416;28;20037;-56
2021/12/08 10:13:51;;;;;;;5.07;2.60;;;;;;;19.77;44.15;95587.56;10458052;28;20047;-56
2021/12/08 10:19:14;;;;;;;4.32;2.88;;;;;;;19.77;44.40;95573.28;10502929;28;20037;-56
2021/12/08 10:24:33;;;;;;;5.22;2.83;;;;;;;19.77;44.14;95565.94;10461251;28;20056;-56
2021/12/08 10:29:53;;;;;;;5.25;3.00;;;;;;;19.74;44.14;95550.44;10477356;28;20048;-56
2021/12/08 10:35:47;;;;;;;8.82;7.50;;;;;;;19.62;36.53;95543.25;10466477;28;20076;-56
2021/12/08 10:41:08;;;;;;;5.28;3.80;;;;;;;19.55;41.43;95551.97;10505090;28;20040;-56
2021/12/08 10:46:35;;;;;;;4.88;3.83;;;;;;;19.57;41.67;95540.81;10464510;28;20040;-56
2021/12/08 10:57:37;;;;;;;7.70;3.87;;;;;;;19.60;41.79;95533.91;10490237;28;20049;-56
2021/12/08 11:03:00;;;;;;;6.22;4.50;;;;;;;19.61;42.21;95530.84;10488020;28;20052;-56
2021/12/08 11:08:33;;;;;;;5.47;4.07;;;;;;;19.61;42.21;95527.38;10491673;28;20053;-56
2021/12/08 11:13:58;;;;;;;5.55;4.20;;;;;;;19.59;42.41;95530.44;10492413;28;20538;-56
2021/12/08 11:19:21;;;;;;;5.00;3.80;;;;;;;19.59;42.36;95530.44;10476571;28;20057;-55
2021/12/08 11:24:49;;;;;;;7.28;5.13;;;;;;;19.58;41.15;95515.34;10463618;28;20064;-57
2021/12/08 11:30:14;;;;;;;6.43;4.75;;;;;;;19.61;40.44;95517.34;10489735;28;20110;-55
2021/12/08 11:35:35;;;;;;;6.43;4.22;;;;;;;19.57;41.67;95503.00;10506444;28;20078;-56
2021/12/08 11:40:54;;;;;;;14.45;10.85;;;;;;;19.37;33.91;95510.31;10492442;28;20053;-55
2021/12/08 11:46:15;;;;;;;8.38;6.85;;;;;;;19.13;38.09;95495.13;10490546;28;20059;-56
2021/12/08 11:51:44;;;;;;;8.77;6.18;;;;;;;19.20;39.39;95495.28;10484342;28;20503;-56
2021/12/08 11:57:36;;;;;;;9.05;6.10;;;;;;;-146.19;100.00;65364.44;10492124;28;20408;-54
2021/12/08 12:03:03;;;;;;;7.85;5.78;;;;;;;19.28;39.53;95501.63;10476964;28;20055;-56
2021/12/08 12:08:22;;;;;;;6.25;5.63;;;;;;;19.31;39.66;95496.28;10449711;28;20045;-56
2021/12/08 12:13:41;;;;;;;7.35;5.38;;;;;;;19.32;39.79;95494.38;10449973;28;20045;-56
2021/12/08 12:19:04;;;;;;;6.70;5.32;;;;;;;19.33;40.18;95493.25;10449647;28;20077;-56
2021/12/08 12:25:05;;;;;;;7.70;5.68;;;;;;;19.31;40.45;95476.63;10448662;28;20091;-56
2021/12/08 12:30:32;;;;;;;6.95;5.70;;;;;;;-146.19;100.00;65364.44;10402757;28;20136;-55
2021/12/08 12:35:56;;;;;;;6.38;5.22;;;;;;;19.30;40.76;95477.75;10440436;28;20041;-56
2021/12/08 12:41:32;;;;;;;6.57;5.03;;;;;;;19.29;40.72;95470.78;10447983;28;20059;-56
2021/12/08 12:47:09;;;;;;;7.63;4.82;;;;;;;19.28;41.10;95466.50;10461726;28;20037;-55
2021/12/08 12:52:38;;;;;;;9.10;5.70;;;;;;;19.28;41.14;95469.97;10448383;28;20408;-54
2021/12/08 12:58:08;;;;;;;;;;;;;;;19.25;41.31;95462.59;10462352;28;20044;-56
2021/12/08 13:03:37;;;;;;;7.05;5.07;;;;;;;19.26;41.15;95466.09;10448933;28;20406;-56
2021/12/08 13:08:59;;;;;;;6.43;4.88;;;;;;;19.25;41.36;95453.72;10479573;28;20055;-56
2021/12/08 13:14:23;;;;;;;9.23;5.28;;;;;;;19.24;41.34;95438.66;10448908;28;20041;-55
2021/12/08 13:19:56;;;;;;;6.90;5.38;;;;;;;19.23;41.41;95445.19;10459423;28;20789;-55
2021/12/08 13:25:53;;;;;;;6.70;5.18;;;;;;;19.24;41.73;95446.75;10453003;28;20052;-54
2021/12/08 13:31:26;;;;;;;7.63;5.25;;;;;;;19.25;41.94;95453.72;10445677;28;20063;-55
2021/12/08 13:36:47;;;;;;;6.78;4.90;;;;;;;19.25;42.28;95451.81;10445469;28;20111;-57
2021/12/08 13:42:14;;;;;;;7.93;5.30;;;;;;;19.26;42.36;95447.19;10462838;28;20431;-53
2021/12/08 13:47:40;;;;;;;7.95;5.00;;;;;;;19.27;42.57;95451.47;10475194;28;20037;-56
2021/12/08 13:53:06;;;;;;;7.25;5.07;;;;;;;19.29;42.43;95443.78;10459508;28;20056;-56
2021/12/08 13:58:34;;;;;;;5.00;4.47;;;;;;;19.30;42.31;95445.34;10471394;28;20447;-56
2021/12/08 14:03:53;;;;;;;7.78;5.57;;;;;;;19.25;39.77;95440.22;10470800;28;20045;-56
2021/12/08 14:09:16;;;;;;;6.47;5.40;;;;;;;19.27;41.64;95408.25;10466632;28;20732;-55
2021/12/08 14:14:35;;;;;;;8.20;6.00;;;;;;;19.29;41.71;95420.25;10470850;28;20048;-56
2021/12/08 14:19:55;;;;;;;8.20;5.70;;;;;;;19.34;41.94;95432.69;10524269;28;20052;-56
2021/12/08 14:25:15;;;;;;;15.10;6.10;;;;;;;19.35;41.11;95435.03;10497299;28;20056;-56
2021/12/08 14:30:34;;;;;;;7.45;5.65;;;;;;;19.35;40.57;95416.13;10471829;28;20057;-56
2021/12/08 14:35:59;;;;;;;8.88;5.75;;;;;;;19.39;41.16;95415.44;10480369;28;20048;-57
2021/12/08 14:41:20;;;;;;;9.25;6.22;;;;;;;19.45;41.90;95416.72;10493474;28;20484;-56
2021/12/08 14:46:42;;;;;;;7.13;5.57;;;;;;;19.48;42.04;95419.47;10486119;28;20044;-56
2021/12/08 14:52:05;;;;;;;8.25;5.47;;;;;;;19.52;42.46;95414.13;10464495;28;20056;-57
2021/12/08 14:57:30;;;;;;;8.93;5.70;;;;;;;19.56;42.66;95404.97;10508174;28;20044;-56
2021/12/08 15:03:04;;;;;;;6.68;5.55;;;;;;;19.61;42.80;95413.91;10475792;28;20696;-57
2021/12/08 15:08:26;;;;;;;10.35;5.22;;;;;;;19.64;43.07;95405.88;10469041;28;20048;-56
2021/12/08 15:13:46;;;;;;;10.38;5.43;;;;;;;19.68;43.23;95387.00;10474717;28;20061;-56
2021/12/08 15:19:12;;;;;;;7.75;5.30;;;;;;;19.72;43.37;95369.00;10486020;28;20075;-55
2021/12/08 15:24:32;;;;;;;7.38;5.38;;;;;;;19.76;43.12;95340.13;10465187;28;20071;-56
2021/12/08 15:29:51;;;;;;;7.03;5.68;;;;;;;19.80;43.37;95383.38;10492759;28;20037;-56
2021/12/08 15:35:13;;;;;;;10.57;5.30;;;;;;;19.84;43.25;95373.44;10474339;28;20040;-56
2021/12/08 15:40:40;;;;;;;6.68;5.10;;;;;;;19.87;43.32;95392.41;10461445;28;20531;-56
2021/12/08 15:46:00;;;;;;;6.53;5.30;;;;;;;19.90;43.85;95397.09;10463311;28;20044;-56
2021/12/08 15:51:21;;;;;;;7.85;5.18;;;;;;;19.94;44.22;95376.31;10465467;28;20049;-55
2021/12/08 15:56:42;;;;;;;7.53;5.30;;;;;;;20.00;44.38;95389.53;10483725;28;20049;-55
2021/12/08 16:02:11;;;;;;;7.50;4.68;;;;;;;-146.19;100.00;65364.44;10471560;28;20052;-54
2021/12/08 16:07:33;;;;;;;8.57;5.45;;;;;;;-146.19;100.00;65364.44;10466507;28;20056;-55
2021/12/08 16:12:55;;;;;;;7.05;4.75;;;;;;;20.09;44.69;95408.97;10484637;28;20056;-56
2021/12/08 16:18:23;;;;;;;8.10;4.78;;;;;;;20.14;44.82;95414.88;10500164;28;20044;-59
2021/12/08 16:23:44;;;;;;;6.13;4.82;;;;;;;20.14;44.82;95414.88;10480660;28;20061;-60
2021/12/08 16:29:03;;;;;;;6.65;4.72;;;;;;;20.14;44.82;95414.88;10467655;28;20127;-57
2021/12/08 16:34:23;;;;;;;7.50;4.70;;;;;;;-146.19;100.00;65364.44;10492261;28;20098;-57
2021/12/08 16:45:25;;;;;;;5.38;4.32;;;;;;;-146.19;100.00;65364.44;10473464;28;20074;-54
2021/12/08 16:50:45;;;;;;;5.82;4.57;;;;;;;-146.19;100.00;65364.44;10472693;28;20087;-53
2021/12/08 16:56:05;;;;;;;8.27;4.85;;;;;;;-146.19;100.00;65364.44;10449088;28;20743;-55
2021/12/08 17:01:26;;;;;;;8.95;4.72;;;;;;;-146.19;100.00;65364.44;10449099;28;20059;-56
2021/12/08 17:06:45;;;;;;;6.68;4.80;;;;;;;-146.19;100.00;65364.44;10452138;28;20056;-56
2021/12/08 17:12:05;;;;;;;6.57;4.78;;;;;;;-146.19;100.00;65364.44;10490142;28;20079;-55
2021/12/08 17:17:25;;;;;;;8.80;4.70;;;;;;;20.14;44.82;95414.88;10489425;28;20132;-56
2021/12/08 17:22:45;;;;;;;5.95;4.38;;;;;;;20.54;45.57;95377.59;10482327;28;20385;-55
2021/12/08 17:28:04;;;;;;;6.95;4.43;;;;;;;;;;10480457;28;20029;-55
2021/12/08 17:33:24;;;;;;;6.63;4.32;;;;;;;-146.19;100.00;65364.44;10466442;28;20614;-55
2021/12/08 17:38:43;;;;;;;6.97;4.38;;;;;;;20.54;45.57;95377.59;10470737;28;20628;-56
2021/12/08 17:44:04;;;;;;;5.80;4.63;;;;;;;20.60;45.70;95387.03;10488908;28;20056;-56
2021/12/08 17:49:23;;;;;;;10.68;4.72;;;;;;;20.60;45.83;95395.13;10495284;28;20044;-57
2021/12/08 17:54:44;;;;;;;6.75;5.10;;;;;;;20.57;42.79;95414.75;10467146;28;20048;-56
2021/12/08 18:00:10;;;;;;;13.65;10.13;;;;;;;20.39;39.25;95392.84;10460234;28;20094;-55
2021/12/08 18:05:31;;;;;;;17.00;9.68;;;;;;;20.39;39.25;95392.84;10445679;28;20102;-58
2021/12/08 18:10:52;;;;;;;11.98;8.93;;;;;;;-146.19;100.00;65364.44;10446000;28;20067;-57
2021/12/08 18:16:15;;;;;;;11.75;8.88;;;;;;;-146.19;100.00;65364.44;10464226;28;20052;-58
2021/12/08 18:21:34;;;;;;;11.90;8.35;;;;;;;20.39;39.25;95392.84;10497903;28;20044;-58
2021/12/08 18:26:53;;;;;;;9.73;8.15;;;;;;;-146.19;100.00;65364.44;10486263;28;20078;-57
2021/12/08 18:32:13;;;;;;;11.90;8.00;;;;;;;-146.19;100.00;65364.44;10485843;28;20048;-57
2021/12/08 18:37:32;;;;;;;12.25;7.70;;;;;;;-146.19;100.00;65364.44;10486845;28;20053;-57
2021/12/08 18:42:51;;;;;;;13.60;9.85;;;;;;;20.48;42.41;95379.06;10469848;28;20541;-58
2021/12/08 18:48:11;;;;;;;12.05;8.00;;;;;;;20.50;43.76;95395.72;10457132;28;20044;-56
2021/12/08 18:53:36;;;;;;;10.02;7.47;;;;;;;-146.19;100.00;65364.44;10455906;28;20565;-57
2021/12/08 18:58:56;;;;;;;11.70;7.22;;;;;;;-146.19;100.00;65364.44;10451825;28;20044;-55
2021/12/08 19:04:19;;;;;;;13.75;7.47;;;;;;;-146.19;100.00;65364.44;10451825;28;20041;-55
2021/12/08 19:09:41;;;;;;;8.52;7.25;;;;;;;-146.19;100.00;65364.44;10451510;28;20047;-55
2021/12/08 19:15:01;;;;;;;9.73;6.60;;;;;;;20.47;44.40;95366.69;10470826;28;20071;-57
2021/12/08 19:20:21;;;;;;;12.38;6.70;;;;;;;20.47;44.74;95382.94;10501734;28;20057;-54
2021/12/08 19:25:42;;;;;;;9.50;7.10;;;;;;;20.47;44.80;95380.22;10465321;28;20420;-55
2021/12/08 19:31:04;;;;;;;8.85;6.30;;;;;;;20.44;44.85;95381.72;10449016;28;20056;-55
2021/12/08 19:36:26;;;;;;;9.70;6.50;;;;;;;20.45;44.93;95369.00;10463477;28;20040;-54
2021/12/08 19:41:46;;;;;;;9.70;6.00;;;;;;;20.45;45.19;95366.28;10468010;28;20475;-55
2021/12/08 19:47:07;;;;;;;9.23;6.38;;;;;;;20.43;45.52;95360.47;10450915;28;20052;-56
2021/12/08 19:52:28;;;;;;;9.70;6.60;;;;;;;20.41;45.82;95336.47;10450640;28;20644;-57
2021/12/08 19:57:49;;;;;;;6.75;5.68;;;;;;;20.41;45.71;95339.19;10460067;28;20742;-57
2021/12/08 20:03:10;;;;;;;10.73;5.80;;;;;;;20.41;45.45;95333.78;10448593;28;20099;-54
2021/12/08 20:08:29;;;;;;;7.28;5.82;;;;;;;20.40;45.60;95320.59;10450438;28;20049;-55
2021/12/08 20:13:50;;;;;;;8.40;5.47;;;;;;;20.39;45.44;95336.06;10449875;28;20061;-58
2021/12/08 20:19:12;;;;;;;6.22;5.50;;;;;;;20.39;45.50;95376.63;10452529;28;20057;-61
2021/12/08 20:24:31;;;;;;;16.88;6.38;;;;;;;-146.19;100.00;65364.44;10463722;28;20056;-57
2021/12/08 20:29:50;;;;;;;13.70;6.75;;;;;;;-146.19;100.00;65364.44;10454239;28;20704;-57
2021/12/08 20:35:19;;;;;;;15.68;6.20;;;;;;;20.37;46.22;95375.44;10459505;28;20061;-58
2021/12/08 20:40:41;;;;;;;10.30;6.28;;;;;;;20.34;46.25;95361.47;10450457;28;20056;-56
2021/12/08 20:46:02;;;;;;;9.77;5.90;;;;;;;20.34;46.26;95379.63;10476559;28;20051;-56
2021/12/08 20:51:22;;;;;;;9.50;5.85;;;;;;;-146.19;100.00;65364.44;10512674;28;20127;-56
2021/12/08 20:56:42;;;;;;;11.02;5.53;;;;;;;-146.19;100.00;65364.44;10507152;28;20120;-57
2021/12/08 21:02:06;;;;;;;10.68;5.85;;;;;;;-146.19;100.00;65364.44;10458850;28;20059;-57
2021/12/08 21:07:26;;;;;;;9.45;5.82;;;;;;;20.28;45.94;95389.97;10447545;28;20044;-55
2021/12/08 21:12:46;;;;;;;9.73;5.88;;;;;;;20.27;45.89;95388.44;10496000;28;20501;-57
2021/12/08 21:18:08;;;;;;;9.23;5.35;;;;;;;20.26;46.06;95377.97;10481245;28;20045;-57
2021/12/08 21:23:27;;;;;;;9.15;5.70;;;;;;;20.25;46.00;95371.78;10457995;28;20401;-56
2021/12/08 21:28:49;;;;;;;10.00;5.47;;;;;;;20.24;46.01;95370.22;10472130;28;20033;-57
2021/12/08 21:34:11;;;;;;;10.68;5.97;;;;;;;20.23;45.82;95387.59;10457117;28;20056;-56
2021/12/08 21:39:31;;;;;;;8.32;5.65;;;;;;;20.22;45.75;95393.38;10458609;28;20056;-60
2021/12/08 21:44:50;;;;;;;7.95;5.20;;;;;;;20.21;45.84;95387.19;10472886;28;20036;-59
2021/12/08 21:50:11;;;;;;;9.90;5.15;;;;;;;20.20;45.92;95393.72;10460254;28;20060;-57
2021/12/08 21:55:31;;;;;;;7.07;4.90;;;;;;;20.18;45.92;95387.88;10462281;28;20056;-54
2021/12/08 22:00:53;;;;;;;6.90;4.95;;;;;;;20.16;45.88;95376.66;10461063;28;20048;-55
2021/12/08 22:06:13;;;;;;;7.80;4.95;;;;;;;20.15;45.84;95375.13;10459791;28;20052;-56
2021/12/08 22:11:32;;;;;;;5.88;4.78;;;;;;;-146.19;100.00;65364.44;10451407;28;20060;-56
2021/12/08 22:16:52;;;;;;;9.00;5.53;;;;;;;20.12;46.08;95365.00;10478167;28;20037;-57
2021/12/08 22:22:12;;;;;;;5.95;4.78;;;;;;;20.11;46.31;95366.94;10489239;28;20056;-55
2021/12/08 22:27:32;;;;;;;8.73;5.25;;;;;;;20.12;46.12;95348.78;10471019;28;20063;-56
2021/12/08 22:32:52;;;;;;;7.00;4.75;;;;;;;20.10;46.40;95351.06;10492724;28;20040;-55
2021/12/08 22:38:12;;;;;;;6.90;4.30;;;;;;;20.09;46.05;95330.56;10506570;28;20037;-56
2021/12/08 22:43:34;;;;;;;8.85;4.63;;;;;;;20.08;45.85;95332.50;10506263;28;20041;-55
2021/12/08 22:48:54;;;;;;;6.68;4.35;;;;;;;20.07;45.81;95322.06;10492143;28;20044;-55
2021/12/08 22:54:13;;;;;;;5.90;4.45;;;;;;;20.05;45.75;95318.94;10506563;28;20044;-55
2021/12/08 22:59:33;;;;;;;6.47;4.50;;;;;;;20.03;45.70;95327.44;10472665;28;20079;-55
2021/12/08 23:04:52;;;;;;;5.22;4.43;;;;;;;20.03;45.69;95335.53;10477325;28;20037;-56
2021/12/08 23:10:14;;;;;;;7.22;4.47;;;;;;;20.03;45.47;95315.81;10477242;28;20068;-56
2021/12/08 23:15:35;;;;;;;6.03;4.60;;;;;;;20.02;45.51;95316.97;10464258;28;20131;-54
2021/12/08 23:21:03;;;;;;;5.50;4.60;;;;;;;20.00;45.30;95316.56;10481565;28;20043;-55
2021/12/08 23:26:24;;;;;;;5.47;4.15;;;;;;;19.98;45.35;95332.34;10466521;28;20439;-56
2021/12/08 23:31:47;;;;;;;5.40;4.05;;;;;;;19.97;45.25;95314.56;10479066;28;20090;-54
2021/12/08 23:37:07;;;;;;;5.20;3.83;;;;;;;19.94;45.47;95322.25;10461985;28;20052;-55
2021/12/08 23:42:27;;;;;;;5.82;4.63;;;;;;;19.92;45.14;95329.94;10460899;28;20067;-55
2021/12/08 23:47:46;;;;;;;5.22;4.25;;;;;;;19.92;45.11;95323.75;10479539;28;20037;-56
2021/12/08 23:53:05;;;;;;;5.80;4.28;;;;;;;19.90;45.00;95332.22;10477618;28;20041;-56
2021/12/08 23:58:31;;;;;;;5.97;4.25;;;;;;;19.89;45.01;95330.66;10465400;28;20637;-55
